Time;durP1;ratioP1;P1;durP2;ratioP2;P2;SDS_P1;SDS_P2;PMS_P1;PMS_P2;Temp;Humidity;BMP_temperature;BMP_pressure;BME280_temperature;BME280_humidity;BME280_pressure;Samples;Min_cycle;Max_cycle;Signal;HPM_P1;HPM_P2
2024/02/08 00:02:12;;;;;;;;;;;;;;;11.89;68.20;100276.72;5083058;28;19916;-81
2024/02/08 00:05:04;;;;;;;;;;;;;;;11.87;68.93;100276.28;5083143;28;19912;-81
2024/02/08 00:07:55;;;;;;;;;;;;;;;11.87;68.74;100276.28;5081002;28;19912;-82
2024/02/08 00:10:47;;;;;;;;;;;;;;;11.86;68.20;100279.31;5077445;28;20374;-82
2024/02/08 00:13:35;;;;;;;;;;;;;;;11.91;68.46;100274.47;5082997;28;19916;-81
2024/02/08 00:16:26;;;;;;;;;;;;;;;11.97;67.71;100275.06;5082579;28;19912;-82
2024/02/08 00:19:16;;;;;;;;;;;;;;;11.90;68.45;100275.59;5077164;28;20297;-82
2024/02/08 00:22:08;;;;;;;;;;;;;;;11.91;67.78;100271.75;5082711;28;19913;-83
2024/02/08 00:25:00;;;;;;;;;;;;;;;11.76;68.66;100266.09;5099476;28;20381;-83
2024/02/08 00:27:52;;;;;;;;;;;;;;;11.73;68.66;100261.34;5080698;28;19916;-82
2024/02/08 00:30:54;;;;;;;;;;;;;;;11.67;68.72;100260.72;5111205;27;20335;-85
2024/02/08 00:33:46;;;;;;;;;;;;;;;11.69;68.95;100253.00;5117743;28;20288;-85
2024/02/08 00:36:38;;;;;;;;;;;;;;;11.61;68.84;100256.59;5115660;28;19916;-85
2024/02/08 00:39:30;;;;;;;;;;;;;;;11.64;69.27;100260.56;5111520;28;19916;-85
2024/02/08 00:42:22;;;;;;;;;;;;;;;11.69;68.86;100268.53;5117798;28;19916;-83
2024/02/08 00:45:14;;;;;;;;;;;;;;;11.60;69.19;100260.44;5117806;28;19912;-83
2024/02/08 00:48:04;;;;;;;;;;;;;;;11.74;68.66;100266.44;5114658;28;19916;-80
2024/02/08 00:50:56;;;;;;;;;;;;;;;11.83;68.28;100264.44;5110613;28;19920;-82
2024/02/08 00:53:48;;;;;;;;;;;;;;;11.72;68.40;100263.22;5117563;28;19912;-81
2024/02/08 00:56:39;;;;;;;;;;;;;;;11.81;68.35;100260.44;5117063;28;20369;-82
2024/02/08 00:59:31;;;;;;;;;;;;;;;11.71;68.82;100256.19;5110750;28;19916;-84
2024/02/08 01:02:24;;;;;;;;;;;;;;;11.70;68.73;100249.13;5117066;28;19916;-83
2024/02/08 01:05:18;;;;;;;;;;;;;;;11.68;68.58;100250.63;5110491;28;19920;-84
2024/02/08 01:08:08;;;;;;;;;;;;;;;11.69;68.52;100253.00;5114232;28;19920;-84
2024/02/08 01:10:57;;;;;;;;;;;;;;;11.67;68.39;100254.47;5116703;28;19920;-84
2024/02/08 01:13:49;;;;;;;;;;;;;;;11.61;68.98;100256.59;5115684;28;20312;-84
2024/02/08 01:16:44;;;;;;;;;;;;;;;11.66;68.74;100253.66;5112881;28;19916;-80
2024/02/08 01:19:36;;;;;;;;;;;;;;;11.61;68.59;100247.63;5110480;28;19920;-83
2024/02/08 01:22:31;;;;;;;;;;;;;;;11.68;68.57;100243.25;5117184;28;20372;-83
2024/02/08 01:25:21;;;;;;;;;;;;;;;11.62;69.21;100241.84;5117235;28;19916;-82
2024/02/08 01:28:12;;;;;;;;;;;;;;;11.73;68.76;100236.81;5114388;28;19916;-83
2024/02/08 01:31:04;;;;;;;;;;;;;;;11.62;68.92;100238.31;5117715;28;20113;-83
2024/02/08 01:33:56;;;;;;;;;;;;;;;11.55;69.28;100234.22;5117477;28;19920;-82
2024/02/08 01:36:48;;;;;;;;;;;;;;;11.66;69.22;100231.88;5115533;28;20297;-82
2024/02/08 01:39:40;;;;;;;;;;;;;;;11.74;69.11;100228.28;5110103;28;19916;-82
2024/02/08 01:42:31;;;;;;;;;;;;;;;11.77;68.69;100229.56;5102757;28;19920;-83
2024/02/08 01:45:38;;;;;;;;;;;;;;;11.64;69.12;100228.69;5102843;28;19916;-85
2024/02/08 01:48:29;;;;;;;;;;;;;;;11.76;68.60;100228.78;5095655;28;19920;-84
2024/02/08 01:51:22;;;;;;;;;;;;;;;11.64;68.93;100219.72;5096170;28;19920;-82
2024/02/08 01:54:14;;;;;;;;;;;;;;;11.61;69.41;100218.47;5102916;28;19916;-82
2024/02/08 01:57:05;;;;;;;;;;;;;;;11.70;69.31;100221.09;5102182;28;19915;-83
2024/02/08 01:59:59;;;;;;;;;;;;;;;11.80;68.61;100204.38;5101450;28;19920;-84
2024/02/08 02:02:55;;;;;;;;;;;;;;;11.67;68.93;100206.25;5095726;28;19916;-83
2024/02/08 02:05:47;;;;;;;;;;;;;;;11.65;68.27;100197.59;5102078;28;20477;-83
2024/02/08 02:08:38;;;;;;;;;;;;;;;11.46;69.66;100195.38;5098092;28;19920;-83
2024/02/08 02:11:37;;;;;;;;;;;;;;;11.46;69.75;100189.13;5096929;28;19920;-84
2024/02/08 02:14:29;;;;;;;;;;;;;;;11.42;69.92;100194.44;5101891;28;19916;-84
2024/02/08 02:17:26;;;;;;;;;;;;;;;11.62;69.34;100187.38;5101733;28;19916;-85
2024/02/08 02:20:24;;;;;;;;;;;;;;;11.43;69.56;100176.97;5101771;28;19912;-84
2024/02/08 02:23:18;;;;;;;;;;;;;;;11.48;69.36;100174.03;5101768;28;20379;-85
2024/02/08 02:26:08;;;;;;;;;;;;;;;11.52;69.67;100180.44;5101637;28;20308;-85
2024/02/08 02:28:57;;;;;;;;;;;;;;;11.68;68.93;100177.88;5096836;28;20381;-85
2024/02/08 02:31:49;;;;;;;;;;;;;;;11.61;69.43;100171.38;5101980;28;19920;-85
2024/02/08 02:34:42;;;;;;;;;;;;;;;11.71;68.88;100170.94;5101862;28;19916;-85
2024/02/08 02:37:34;;;;;;;;;;;;;;;11.66;69.23;100169.22;5100413;28;19916;-85
2024/02/08 02:40:26;;;;;;;;;;;;;;;11.60;69.73;100173.28;5101050;28;19912;-85
2024/02/08 02:43:17;;;;;;;;;;;;;;;11.49;69.85;100162.03;5101512;28;19916;-83
2024/02/08 02:46:10;;;;;;;;;;;;;;;11.41;70.34;100162.09;5101306;28;19916;-85
2024/02/08 02:49:02;;;;;;;;;;;;;;;11.56;69.96;100159.56;5096378;28;20380;-84
2024/02/08 02:51:55;;;;;;;;;;;;;;;11.57;69.91;100153.00;5101186;28;19916;-84
2024/02/08 02:54:47;;;;;;;;;;;;;;;11.39;70.73;100151.53;5101356;28;19916;-84
2024/02/08 02:57:40;;;;;;;;;;;;;;;11.42;70.34;100147.38;5100426;28;19920;-83
2024/02/08 03:00:38;;;;;;;;;;;;;;;11.36;70.95;100151.44;5101449;28;20401;-84
2024/02/08 03:03:29;;;;;;;;;;;;;;;11.35;71.25;100156.06;5101544;28;19920;-82
2024/02/08 03:06:19;;;;;;;;;;;;;;;11.24;71.47;100144.00;5101428;28;19920;-83
2024/02/08 03:09:15;;;;;;;;;;;;;;;11.32;71.22;100145.84;5096638;28;20380;-83
2024/02/08 03:12:06;;;;;;;;;;;;;;;11.41;70.92;100140.31;5095751;28;19916;-83
2024/02/08 03:15:03;;;;;;;;;;;;;;;11.42;70.71;100145.44;5099743;28;20296;-83
2024/02/08 03:17:55;;;;;;;;;;;;;;;11.39;70.96;100137.94;5099383;28;19916;-83
2024/02/08 03:20:47;;;;;;;;;;;;;;;11.51;70.33;100131.75;5101378;28;19916;-83
2024/02/08 03:23:45;;;;;;;;;;;;;;;11.48;70.45;100141.38;5101166;28;19916;-84
2024/02/08 03:26:40;;;;;;;;;;;;;;;11.52;70.24;100149.69;5101106;28;19916;-83
2024/02/08 03:29:32;;;;;;;;;;;;;;;11.58;69.92;100149.13;5094978;28;20373;-83
2024/02/08 03:32:26;;;;;;;;;;;;;;;11.50;69.67;100149.22;5100789;28;19916;-85
2024/02/08 03:35:18;;;;;;;;;;;;;;;11.27;70.43;100142.53;5100397;28;20304;-82
2024/02/08 03:38:10;;;;;;;;;;;;;;;11.37;70.29;100142.13;5097614;28;19916;-83
2024/02/08 03:41:02;;;;;;;;;;;;;;;11.34;70.72;100148.22;5096115;28;19916;-85
2024/02/08 03:43:54;;;;;;;;;;;;;;;11.28;71.20;100144.91;5100492;28;19928;-84
2024/02/08 03:46:46;;;;;;;;;;;;;;;11.31;70.93;100136.09;5100125;28;19919;-84
2024/02/08 03:49:38;;;;;;;;;;;;;;;11.31;71.10;100138.81;5093348;28;19920;-84
2024/02/08 03:52:30;;;;;;;;;;;;;;;11.28;70.92;100127.78;5100030;28;19916;-83
2024/02/08 03:55:26;;;;;;;;;;;;;;;11.30;71.31;100136.41;5099917;28;19916;-84
2024/02/08 03:58:18;;;;;;;;;;;;;;;11.32;70.98;100139.63;5093578;28;19916;-83
2024/02/08 04:01:10;;;;;;;;;;;;;;;11.07;71.35;100130.56;5099732;28;19920;-84
2024/02/08 04:04:11;;;;;;;;;;;;;;;11.08;71.42;100135.63;5099373;28;20376;-84
2024/02/08 04:07:14;;;;;;;;;;;;;;;11.07;70.41;100133.28;5099557;28;19916;-83
2024/02/08 04:10:29;;;;;;;;;;;;;;;10.72;71.46;100138.13;5099556;28;20238;-85
2024/02/08 04:54:09;;;;;;;;;;;;;;;8.99;80.71;100134.34;5099679;28;20376;-82
2024/02/08 04:57:00;;;;;;;;;;;;;;;9.07;80.99;100138.97;5099454;28;20369;-85
2024/02/08 04:59:50;;;;;;;;;;;;;;;9.12;78.69;100140.72;5099332;28;19916;-84
2024/02/08 05:02:42;;;;;;;;;;;;;;;9.20;79.01;100137.19;5099444;28;19916;-86
2024/02/08 05:05:34;;;;;;;;;;;;;;;9.13;77.13;100132.28;5099535;28;19916;-85
2024/02/08 05:08:26;;;;;;;;;;;;;;;9.39;75.54;100138.50;5087012;28;19917;-84
2024/02/08 05:11:16;;;;;;;;;;;;;;;9.15;76.63;100130.03;5078165;28;19920;-82
2024/02/08 05:14:05;;;;;;;;;;;;;;;9.09;76.69;100131.34;5079102;28;19916;-83
2024/02/08 05:16:57;;;;;;;;;;;;;;;9.25;76.21;100137.84;5097813;28;20296;-83
2024/02/08 05:19:50;;;;;;;;;;;;;;;9.12;75.85;100133.38;5103444;28;20550;-83
2024/02/08 05:22:42;;;;;;;;;;;;;;;8.68;77.07;100131.78;5103537;28;20725;-83
2024/02/08 05:25:35;;;;;;;;;;;;;;;8.73;77.10;100130.81;5103263;28;19916;-83
2024/02/08 05:28:24;;;;;;;;;;;;;;;8.77;77.63;100134.50;5100483;28;20381;-84
2024/02/08 05:31:19;;;;;;;;;;;;;;;9.01;76.89;100134.81;5096809;28;20373;-84
2024/02/08 05:34:11;;;;;;;;;;;;;;;9.09;75.72;100139.47;5076224;28;19916;-83
2024/02/08 05:37:03;;;;;;;;;;;;;;;9.10;75.15;100138.31;5082219;28;19916;-83
2024/02/08 05:39:55;;;;;;;;;;;;;;;9.17;75.70;100140.56;5082604;28;19917;-83
2024/02/08 05:42:47;;;;;;;;;;;;;;;9.23;73.66;100136.59;5082611;28;19916;-83
2024/02/08 05:45:39;;;;;;;;;;;;;;;9.28;72.51;100145.34;5082620;28;20518;-84
2024/02/08 05:48:33;;;;;;;;;;;;;;;9.15;74.09;100143.59;5099459;28;19916;-82
2024/02/08 05:51:26;;;;;;;;;;;;;;;9.24;73.87;100140.91;5103036;28;19920;-83
2024/02/08 05:54:20;;;;;;;;;;;;;;;8.42;74.16;100149.88;5102999;28;20388;-83
2024/02/08 05:57:12;;;;;;;;;;;;;;;8.09;73.92;100146.69;5104531;28;19915;-82
2024/02/08 06:00:10;;;;;;;;;;;;;;;7.88;74.96;100138.31;5099572;28;20368;-83
2024/02/08 06:03:01;;;;;;;;;;;;;;;8.22;75.52;100140.38;5089253;28;19916;-83
2024/02/08 06:06:06;;;;;;;;;;;;;;;8.53;75.98;100140.34;5102160;28;19916;-84
2024/02/08 06:08:58;;;;;;;;;;;;;;;8.65;78.33;100137.00;5097191;28;19916;-85
2024/02/08 06:12:08;;;;;;;;;;;;;;;8.44;79.13;100128.69;5102407;28;20504;-83
2024/02/08 06:26:56;;;;;;;;;;;;;;;7.84;87.53;100171.72;5359930;23;19926;-80
2024/02/08 06:29:43;;;;;;;;;;;;;;;7.47;92.26;100173.72;4944768;29;19930;-79
2024/02/08 06:32:46;;;;;;;;;;;;;;;7.43;93.22;100170.03;4945645;29;19923;-80
2024/02/08 06:35:45;;;;;;;;;;;;;;;7.54;92.97;100184.13;4944535;29;20296;-80
2024/02/08 09:26:46;;;;;;;;;;;;;;;10.13;83.49;100324.78;1292009;26;19958;-81
2024/02/08 09:30:37;;;;;;;;;;;;;;;10.14;83.32;100329.09;5209345;23;19921;-85
2024/02/08 09:51:11;;;;;;;;;;;;;;;9.43;85.16;100334.03;4895706;23;21281;-81
2024/02/08 09:54:15;;;;;;;;;;;;;;;8.98;88.88;100330.72;4947087;29;19927;-81
2024/02/08 09:57:03;;;;;;;;;;;;;;;8.94;89.60;100335.13;4963515;28;19918;-82
2024/02/08 10:00:07;;;;;;;;;;;;;;;9.15;88.92;100336.19;4946653;29;19918;-82
2024/02/08 10:03:31;;;;;;;;;;;;;;;9.68;87.00;100327.03;4946294;29;19919;-82
2024/02/08 10:06:24;;;;;;;;;;;;;;;9.95;86.22;100324.00;4936950;29;19919;-82
2024/02/08 10:09:46;;;;;;;;;;;;;;;9.84;85.21;100320.00;4953359;28;19922;-82
2024/02/08 10:13:05;;;;;;;;;;;;;;;10.71;82.28;100329.66;4933945;29;19923;-81
2024/02/08 10:16:16;;;;;;;;;;;;;;;11.06;79.19;100328.38;4946967;29;19918;-81
2024/02/08 10:19:47;;;;;;;;;;;;;;;10.73;81.01;100330.09;4943764;29;20304;-80
2024/02/08 10:23:33;;;;;;;;;;;;;;;10.86;79.80;100334.53;4941904;29;19922;-81
2024/02/08 10:27:06;;;;;;;;;;;;;;;10.64;79.56;100338.28;4944066;29;19918;-81
2024/02/08 12:01:56;;;;;;;;;;;;;;;12.67;69.32;100227.59;5151711;23;19938;-87
2024/02/08 12:05:17;;;;;;;;;;;;;;;12.37;70.00;100218.03;4947806;28;19923;-87
2024/02/08 13:07:10;;;;;;;;;;;;;;;17.68;53.62;100136.72;4984193;23;19933;-87
2024/02/08 13:10:08;;;;;;;;;;;;;;;17.73;52.07;100139.13;4938825;29;19922;-85
2024/02/08 13:13:03;;;;;;;;;;;;;;;21.04;43.93;100142.00;4944047;29;19923;-87
2024/02/08 13:16:00;;;;;;;;;;;;;;;16.86;51.65;100142.38;4937739;29;19919;-86
2024/02/08 13:18:59;;;;;;;;;;;;;;;14.39;60.30;100134.50;4934052;29;19919;-88
2024/02/08 13:21:57;;;;;;;;;;;;;;;16.61;55.75;100142.00;4944063;29;19919;-86
2024/02/08 13:24:49;;;;;;;;;;;;;;;19.98;46.03;100145.63;4943680;29;19926;-86
2024/02/08 13:27:38;;;;;;;;;;;;;;;21.94;40.76;100130.94;4926260;29;19918;-86
2024/02/08 13:30:33;;;;;;;;;;;;;;;20.11;44.00;100130.28;4943384;29;19923;-87
2024/02/08 13:33:22;;;;;;;;;;;;;;;22.48;38.61;100114.69;4942927;29;19923;-87
2024/02/08 13:36:12;;;;;;;;;;;;;;;18.70;46.13;100114.81;4941898;29;19918;-86
2024/02/08 13:39:04;;;;;;;;;;;;;;;14.90;57.45;100118.88;4929422;29;19919;-84
2024/02/08 13:41:56;;;;;;;;;;;;;;;13.71;62.60;100123.78;4938135;29;20332;-87
2024/02/08 13:44:48;;;;;;;;;;;;;;;14.43;60.65;100129.13;4935616;29;19918;-88
2024/02/08 13:47:43;;;;;;;;;;;;;;;12.90;66.16;100112.53;4946210;28;19918;-87
2024/02/08 14:41:06;;;;;;;;;;;;;;;17.42;52.30;100109.34;4936969;29;19927;-88
2024/02/08 14:44:05;;;;;;;;;;;;;;;17.07;51.94;100104.19;4939311;29;20400;-87
2024/02/08 14:46:58;;;;;;;;;;;;;;;17.47;51.21;100103.50;4955231;28;19926;-84
2024/02/08 14:50:02;;;;;;;;;;;;;;;17.23;51.32;100102.03;4914951;29;19927;-85
2024/02/08 14:52:56;;;;;;;;;;;;;;;15.37;57.33;100118.66;4926246;29;19923;-83
2024/02/08 14:55:51;;;;;;;;;;;;;;;16.75;53.36;100108.50;4925215;29;19919;-83
2024/02/08 14:58:58;;;;;;;;;;;;;;;13.88;62.22;100108.22;4908327;29;19919;-84
2024/02/08 15:02:12;;;;;;;;;;;;;;;14.65;60.05;100109.31;4915893;29;19919;-86
2024/02/08 15:05:02;;;;;;;;;;;;;;;14.35;61.29;100106.25;4906984;29;19923;-83
2024/02/08 15:07:51;;;;;;;;;;;;;;;13.95;62.76;100116.59;4914966;29;19919;-85
2024/02/08 15:10:43;;;;;;;;;;;;;;;13.78;63.24;100111.47;4912714;29;19923;-84
2024/02/08 15:14:07;;;;;;;;;;;;;;;13.71;63.93;100109.38;4921003;29;19927;-86
2024/02/08 15:16:44;;;;;;;;;;;;;;;13.62;65.00;100106.78;4909891;29;19923;-86
2024/02/08 15:19:36;;;;;;;;;;;;;;;13.38;65.70;100111.56;4909888;29;19935;-86
2024/02/08 15:25:34;;;;;;;;;;;;;;;13.26;66.04;100104.22;4917839;29;19927;-88
2024/02/08 15:28:31;;;;;;;;;;;;;;;13.02;66.17;100099.63;4919690;29;20309;-90
2024/02/08 15:31:39;;;;;;;;;;;;;;;12.65;67.83;100109.81;4919031;29;19923;-87
2024/02/08 15:41:28;;;;;;;;;;;;;;;12.59;68.87;100092.13;4919638;29;19919;-88
2024/02/08 15:44:21;;;;;;;;;;;;;;;12.50;69.32;100085.97;4920915;29;19919;-87
2024/02/08 15:47:20;;;;;;;;;;;;;;;12.58;68.84;100081.56;4906631;29;19919;-87
2024/02/08 15:50:15;;;;;;;;;;;;;;;12.56;69.05;100079.16;4918902;29;19919;-88
2024/02/08 15:53:16;;;;;;;;;;;;;;;12.33;69.99;100076.13;4924863;29;19927;-88
2024/02/08 15:56:08;;;;;;;;;;;;;;;12.03;71.33;100071.25;4922211;29;19923;-89
2024/02/08 15:59:04;;;;;;;;;;;;;;;12.25;70.78;100085.22;4921497;29;19919;-87
2024/02/08 16:01:57;;;;;;;;;;;;;;;12.31;70.57;100086.59;4923186;29;19920;-87
2024/02/08 16:04:53;;;;;;;;;;;;;;;12.30;69.99;100081.47;4925268;29;19920;-87
2024/02/08 16:07:45;;;;;;;;;;;;;;;12.25;70.48;100070.78;4912338;29;19923;-88
2024/02/08 16:10:43;;;;;;;;;;;;;;;12.19;70.34;100077.63;4916018;29;19920;-87
2024/02/08 16:13:35;;;;;;;;;;;;;;;12.28;70.72;100068.19;4910405;29;19923;-87
2024/02/08 16:16:27;;;;;;;;;;;;;;;12.28;70.44;100072.84;4926450;29;20384;-87
2024/02/08 16:19:42;;;;;;;;;;;;;;;12.22;71.13;100072.28;4919976;29;19919;-87
2024/02/08 16:22:37;;;;;;;;;;;;;;;12.09;71.69;100067.19;4924881;29;20380;-87
2024/02/08 16:28:50;;;;;;;;;;;;;;;12.11;72.17;100062.16;4903400;29;20380;-88
2024/02/08 16:35:58;;;;;;;;;;;;;;;11.72;74.70;100079.94;5619909;23;19941;-88
2024/02/08 16:38:16;;;;;;;;;;;;;;;11.90;73.50;100073.97;4948489;29;19931;-88
2024/02/08 16:41:08;;;;;;;;;;;;;;;12.02;73.11;100058.78;4943747;29;19918;-87
2024/02/08 16:44:03;;;;;;;;;;;;;;;12.06;72.80;100054.22;4941046;29;19919;-88
2024/02/08 16:46:55;;;;;;;;;;;;;;;12.13;72.22;100057.97;4944914;29;19919;-88
2024/02/08 16:49:50;;;;;;;;;;;;;;;12.14;72.28;100061.50;4937879;29;19934;-86
2024/02/08 16:52:45;;;;;;;;;;;;;;;12.18;72.11;100059.69;4951988;29;19923;-87
2024/02/08 16:55:36;;;;;;;;;;;;;;;12.20;71.67;100060.13;4943712;29;19919;-91
2024/02/08 16:58:37;;;;;;;;;;;;;;;12.20;71.76;100073.75;4932405;29;19923;-87
2024/02/08 17:01:32;;;;;;;;;;;;;;;12.16;71.60;100065.47;4950742;29;19927;-87
2024/02/08 17:04:29;;;;;;;;;;;;;;;12.14;71.81;100056.06;4947377;29;19918;-88
2024/02/08 17:07:27;;;;;;;;;;;;;;;12.11;71.83;100067.63;4952972;28;19919;-88
2024/02/08 17:10:43;;;;;;;;;;;;;;;11.97;71.89;100079.66;4945296;29;19919;-85
2024/02/08 17:13:40;;;;;;;;;;;;;;;11.88;72.45;100080.91;4947173;29;19923;-86
2024/02/08 17:19:40;;;;;;;;;;;;;;;11.82;72.72;100076.81;4950712;28;20308;-87
2024/02/08 17:22:51;;;;;;;;;;;;;;;11.69;73.24;100067.78;4948215;29;19919;-87
2024/02/08 17:25:55;;;;;;;;;;;;;;;11.65;73.74;100079.69;4933935;29;19919;-87
2024/02/08 17:29:06;;;;;;;;;;;;;;;11.70;73.76;100084.91;4931131;29;19926;-86
2024/02/08 17:31:59;;;;;;;;;;;;;;;11.67;74.24;100085.59;4946575;28;19922;-85
2024/02/08 17:34:51;;;;;;;;;;;;;;;11.67;74.16;100083.69;4944184;28;20304;-85
2024/02/08 17:37:48;;;;;;;;;;;;;;;11.68;74.01;100068.13;4950893;28;19934;-83
2024/02/08 17:40:37;;;;;;;;;;;;;;;11.69;74.14;100067.78;4937260;29;19923;-82
2024/02/08 17:43:38;;;;;;;;;;;;;;;11.80;73.98;100074.41;4943000;28;19918;-83
2024/02/08 17:46:30;;;;;;;;;;;;;;;11.72;74.20;100074.50;4939947;29;20304;-83
2024/02/08 17:49:19;;;;;;;;;;;;;;;11.70;74.36;100079.47;4934008;29;19920;-82
2024/02/08 17:52:11;;;;;;;;;;;;;;;11.68;74.50;100088.00;4946306;28;19923;-83
2024/02/08 17:55:06;;;;;;;;;;;;;;;11.80;74.14;100089.97;4934433;28;19919;-84
2024/02/08 17:57:55;;;;;;;;;;;;;;;11.86;73.59;100089.41;4949261;28;19922;-83
2024/02/08 18:00:48;;;;;;;;;;;;;;;11.30;76.09;100093.66;4933954;29;19918;-83
2024/02/08 18:03:37;;;;;;;;;;;;;;;11.24;77.12;100102.38;4930158;29;19923;-82
2024/02/08 18:06:24;;;;;;;;;;;;;;;11.55;76.17;100106.22;4949340;28;19918;-84
2024/02/08 18:09:16;;;;;;;;;;;;;;;11.76;74.97;100106.19;4940050;28;19919;-83
2024/02/08 18:12:12;;;;;;;;;;;;;;;11.88;74.00;100114.41;4942762;29;19923;-84
2024/02/08 18:15:23;;;;;;;;;;;;;;;11.88;73.96;100097.25;4929681;28;19918;-82
2024/02/08 18:18:15;;;;;;;;;;;;;;;11.89;73.88;100082.47;4934584;28;19919;-82
2024/02/08 18:21:13;;;;;;;;;;;;;;;11.91;74.04;100091.91;4934723;28;19918;-83
2024/02/08 18:24:05;;;;;;;;;;;;;;;11.96;73.30;100082.72;4931199;29;19923;-85
2024/02/08 18:27:00;;;;;;;;;;;;;;;11.90;73.58;100095.78;4943637;28;20347;-83
2024/02/08 18:29:52;;;;;;;;;;;;;;;11.72;74.32;100097.09;4929881;28;19918;-83
2024/02/08 18:32:42;;;;;;;;;;;;;;;11.37;75.33;100095.84;4943231;29;19922;-83
2024/02/08 18:35:39;;;;;;;;;;;;;;;11.49;76.33;100077.63;4939220;29;19922;-83
2024/02/08 18:38:33;;;;;;;;;;;;;;;11.64;74.96;100059.84;4939215;29;19927;-83
2024/02/08 18:41:25;;;;;;;;;;;;;;;11.72;74.74;100077.22;4931356;29;19926;-83
2024/02/08 18:44:17;;;;;;;;;;;;;;;11.61;75.65;100092.41;4931098;28;19920;-85
2024/02/08 18:47:04;;;;;;;;;;;;;;;11.78;73.89;100084.88;4931212;28;20309;-84
2024/02/08 18:49:59;;;;;;;;;;;;;;;11.84;73.74;100080.78;4955501;28;20388;-81
2024/02/08 18:52:52;;;;;;;;;;;;;;;11.59;74.93;100071.75;4940486;28;19931;-84
2024/02/08 18:55:45;;;;;;;;;;;;;;;11.78;73.75;100073.19;4940465;29;20014;-82
2024/02/08 18:58:33;;;;;;;;;;;;;;;12.01;72.82;100071.59;4941667;28;20292;-83
2024/02/08 19:01:26;;;;;;;;;;;;;;;11.99;72.19;100079.31;4937973;28;19923;-84
2024/02/08 19:04:19;;;;;;;;;;;;;;;11.79;73.25;100072.81;4927588;29;19919;-85
2024/02/08 19:07:11;;;;;;;;;;;;;;;11.55;73.85;100064.59;4938811;29;19919;-83
2024/02/08 19:10:01;;;;;;;;;;;;;;;12.04;73.89;100070.91;4927395;29;19919;-83
2024/02/08 19:12:53;;;;;;;;;;;;;;;12.18;71.25;100071.38;4943693;28;19927;-81
2024/02/08 19:15:45;;;;;;;;;;;;;;;12.20;70.66;100065.56;4938851;28;19918;-84
2024/02/08 19:18:46;;;;;;;;;;;;;;;12.05;70.78;100066.25;4951751;28;19919;-83
2024/02/08 19:21:37;;;;;;;;;;;;;;;12.04;70.96;100068.19;4945897;28;19918;-85
2024/02/08 19:24:29;;;;;;;;;;;;;;;12.11;71.14;100062.16;4944152;29;19919;-83
2024/02/08 19:27:21;;;;;;;;;;;;;;;12.16;70.52;100065.47;4937913;29;19919;-84
2024/02/08 19:30:13;;;;;;;;;;;;;;;12.24;70.09;100058.31;4957132;28;19922;-83
2024/02/08 19:33:05;;;;;;;;;;;;;;;12.15;69.98;100066.59;4939757;29;20668;-83
2024/02/08 19:35:57;;;;;;;;;;;;;;;11.90;70.53;100068.53;4940293;29;19919;-83
2024/02/08 19:38:49;;;;;;;;;;;;;;;11.85;71.48;100062.50;4943459;29;19918;-83
2024/02/08 19:41:39;;;;;;;;;;;;;;;11.57;71.74;100054.16;4946479;28;19919;-83
2024/02/08 19:44:34;;;;;;;;;;;;;;;11.29;73.26;100042.28;4943668;29;19919;-82
2024/02/08 19:47:29;;;;;;;;;;;;;;;11.50;72.92;100049.25;4947071;29;20602;-84
2024/02/08 19:50:21;;;;;;;;;;;;;;;11.70;72.19;100057.69;4953023;28;20388;-82
2024/02/08 19:53:13;;;;;;;;;;;;;;;11.73;71.24;100051.63;4951767;28;20012;-84
2024/02/08 19:56:07;;;;;;;;;;;;;;;11.31;73.03;100049.00;4942735;28;19919;-86
2024/02/08 19:58:58;;;;;;;;;;;;;;;11.33;73.10;100049.44;4946041;28;19919;-83
2024/02/08 20:01:47;;;;;;;;;;;;;;;11.47;72.72;100052.66;4943461;29;20549;-84
2024/02/08 20:04:40;;;;;;;;;;;;;;;11.38;73.00;100051.16;4921978;29;19919;-84
2024/02/08 20:07:31;;;;;;;;;;;;;;;11.65;72.66;100064.16;4948554;28;19918;-83
2024/02/08 20:10:23;;;;;;;;;;;;;;;11.83;71.76;100049.25;4939645;29;19931;-83
2024/02/08 20:13:14;;;;;;;;;;;;;;;11.74;71.10;100037.63;4947289;28;19923;-83
2024/02/08 20:16:04;;;;;;;;;;;;;;;11.57;71.77;100038.63;4946295;28;19926;-84
2024/02/08 20:18:56;;;;;;;;;;;;;;;11.41;72.05;100037.69;4945581;28;19918;-83
2024/02/08 20:21:51;;;;;;;;;;;;;;;11.33;72.69;100043.19;4961828;28;20396;-84
2024/02/08 20:24:46;;;;;;;;;;;;;;;11.48;72.15;100039.81;4958851;28;19926;-84
2024/02/08 20:27:36;;;;;;;;;;;;;;;11.69;70.74;100037.03;4944302;28;20380;-84
2024/02/08 20:30:28;;;;;;;;;;;;;;;11.78;70.58;100029.59;4942289;29;19919;-82
2024/02/08 20:33:20;;;;;;;;;;;;;;;11.89;69.59;100034.22;4947846;28;19922;-83
2024/02/08 20:36:08;;;;;;;;;;;;;;;11.82;70.13;100039.47;4937333;29;19918;-83
2024/02/08 20:39:00;;;;;;;;;;;;;;;11.68;70.07;100036.25;4928444;29;19919;-81
2024/02/08 20:41:53;;;;;;;;;;;;;;;11.66;70.77;100043.16;4945018;29;19923;-84
2024/02/08 20:44:43;;;;;;;;;;;;;;;11.80;70.93;100051.81;4929567;29;19918;-82
2024/02/08 20:47:36;;;;;;;;;;;;;;;11.86;69.59;100040.38;4955158;28;19918;-85
2024/02/08 20:50:34;;;;;;;;;;;;;;;11.74;70.73;100048.53;4939643;29;19919;-83
2024/02/08 20:53:27;;;;;;;;;;;;;;;11.74;69.84;100034.91;4954498;28;19923;-85
2024/02/08 20:56:30;;;;;;;;;;;;;;;11.65;70.30;100031.47;4961355;28;19926;-83
2024/02/08 20:59:23;;;;;;;;;;;;;;;11.46;70.84;100012.16;4929501;29;19918;-84
2024/02/08 21:02:15;;;;;;;;;;;;;;;11.46;70.97;100004.00;4961628;28;19918;-85
2024/02/08 21:05:07;;;;;;;;;;;;;;;11.50;71.44;100015.78;4959812;28;19919;-85
2024/02/08 21:07:59;;;;;;;;;;;;;;;11.56;71.01;100017.16;4945566;28;19923;-85
2024/02/08 21:10:52;;;;;;;;;;;;;;;11.37;71.96;100011.47;4938176;29;19918;-84
2024/02/08 21:13:44;;;;;;;;;;;;;;;11.21;72.77;100014.03;4950166;29;19927;-84
2024/02/08 21:16:40;;;;;;;;;;;;;;;11.49;72.41;100014.19;4945879;28;19918;-84
2024/02/08 21:19:32;;;;;;;;;;;;;;;11.71;71.36;100000.16;4954025;29;19918;-83
2024/02/08 21:22:24;;;;;;;;;;;;;;;11.81;70.39;99999.75;4953548;28;19923;-83
2024/02/08 21:25:19;;;;;;;;;;;;;;;11.97;70.10;100002.56;4953710;28;19919;-83
2024/02/08 21:28:09;;;;;;;;;;;;;;;12.03;69.73;99998.50;4952369;28;19918;-82
2024/02/08 21:31:00;;;;;;;;;;;;;;;11.80;71.00;100000.06;4934554;29;19920;-82
2024/02/08 21:33:52;;;;;;;;;;;;;;;11.85;70.56;100006.09;4926910;29;20389;-84
2024/02/08 21:36:45;;;;;;;;;;;;;;;11.89;70.50;100001.53;4953162;28;19919;-83
2024/02/08 21:39:37;;;;;;;;;;;;;;;11.63;71.18;99994.84;4939872;29;19919;-83
2024/02/08 21:42:29;;;;;;;;;;;;;;;11.68;71.65;99997.34;4953903;28;19918;-83
2024/02/08 21:45:26;;;;;;;;;;;;;;;11.85;70.87;99995.19;4963307;28;19919;-83
2024/02/08 21:48:19;;;;;;;;;;;;;;;11.87;70.97;99990.22;4961198;28;19918;-84
2024/02/08 21:51:11;;;;;;;;;;;;;;;11.94;71.13;99979.50;4925269;29;19923;-84
2024/02/08 21:54:08;;;;;;;;;;;;;;;11.52;72.17;99978.16;4925837;29;19923;-83
2024/02/08 21:57:03;;;;;;;;;;;;;;;11.37;72.85;99978.81;4940123;28;19918;-82
2024/02/08 21:59:56;;;;;;;;;;;;;;;11.41;73.65;99977.78;4954189;28;19923;-82
2024/02/08 22:02:45;;;;;;;;;;;;;;;11.30;73.55;99979.34;4934375;28;19923;-83
2024/02/08 22:05:38;;;;;;;;;;;;;;;11.39;73.12;99976.53;4947664;28;19918;-83
2024/02/08 22:08:30;;;;;;;;;;;;;;;11.52;72.70;99981.66;4934106;28;19978;-82
2024/02/08 22:11:19;;;;;;;;;;;;;;;11.38;73.00;99974.94;4933776;28;20381;-82
2024/02/08 22:14:11;;;;;;;;;;;;;;;11.57;72.85;99981.44;4930269;29;19931;-83
2024/02/08 22:17:07;;;;;;;;;;;;;;;11.25;73.32;99973.34;4930467;28;19918;-82
2024/02/08 22:20:00;;;;;;;;;;;;;;;11.43;73.58;99978.22;4926501;28;19919;-82
2024/02/08 22:22:54;;;;;;;;;;;;;;;11.61;73.18;99984.28;4963408;28;19922;-82
2024/02/08 22:25:44;;;;;;;;;;;;;;;11.80;72.67;99989.19;4962868;28;20376;-87
2024/02/08 22:28:39;;;;;;;;;;;;;;;11.91;71.79;99999.28;4959735;28;19922;-82
2024/02/08 22:31:31;;;;;;;;;;;;;;;11.92;71.41;99995.44;4925008;29;19919;-83
2024/02/08 22:34:23;;;;;;;;;;;;;;;11.94;71.37;99993.13;4919734;29;19923;-84
2024/02/08 22:37:15;;;;;;;;;;;;;;;11.98;70.98;99999.50;4951373;28;19922;-82
2024/02/08 22:40:06;;;;;;;;;;;;;;;12.08;70.57;99997.47;4945918;28;19923;-83